Nearby METAR Reports

 

KIMT - Iron Mountain, Michigan, USA
Distance from station: 0 29mi, 47km
Updated: Sat, 16-Feb-2019 8:54am CST
Overcast
Overcast
 Wind from calm
Wind: Calm
Temperature: 7°F , -14°C
Dew Point: 3°F , -16°C
Humidity: 85%
Barometer: 30.11 inHg , 1019.6 hPa
Clouds: Overcast
Visibility: 9 miles , 14 km
Cloud details: Overcast 1400 ft
2019/02/16 14:54 KIMT 161454Z AUTO 00000KT 9SM OVC014 M14/M16 A3011 RMK AO2 SLP225 60000 T11441156 53007
KMNM - Menominee, Michigan, USA
Distance from station: SE 31mi, 51km
Updated: Sat, 16-Feb-2019 8:56am CST
Light snow, Overcast
Light snow, Overcast
 Wind from NNW
Wind: NNW 6 mph , 9 km/h
Temperature: 12°F , -11°C
Wind Chill: 2°F , -17°C
Dew Point: 9°F , -13°C
Humidity: 85%
Barometer: 30.17 inHg , 1021.7 hPa
Summary: Light Snow
Clouds: Overcast
Visibility: 9 miles , 14 km
Cloud details: Overcast 2000 ft
2019/02/16 14:56 KMNM 161456Z AUTO 33005KT 9SM -SN OVC020 M11/M13 A3017 RMK AO2 SLP239 P0000 60000 T11111133 53004 FZRANO $
 
KOCQ - Oconto, Wisconsin, USA
Distance from station: SSE 38mi, 61km
Updated: Sat, 16-Feb-2019 9:15am CST
Clear
Clear
 Wind from calm
Wind: Calm
Temperature: 10°F , -12°C
Dew Point: 5°F , -15°C
Humidity: 79%
Barometer: 30.18 inHg , 1022 hPa
Clouds: Clear
Visibility: 10 miles , 16 km
2019/02/16 15:15 KOCQ 161515Z AUTO 00000KT 10SM CLR M12/M15 A3018 RMK AO1 T11181149
KEZS - Shawano Muni, Wisconsin, USA
Distance from station: SSW 48mi, 77km
Updated: Sat, 16-Feb-2019 9:35am CST
Clear
Clear
 Wind from calm
Wind: Calm
Temperature: 19°F , -7°C
Dew Point: 16°F , -9°C
Humidity: 86%
Barometer: 30.18 inHg , 1022 hPa
Clouds: Clear
Visibility: 10 miles , 16 km
2019/02/16 15:35 KEZS 161535Z AUTO 00000KT 10SM CLR M07/M09 A3018 RMK AO2 T10681093
 
KAIG - Antigo/Langlade, Wisconsin, USA
Distance from station: WSW 51mi, 82km
Updated: Sat, 16-Feb-2019 9:15am CST
Clear
Clear
 Wind from NNE
Wind: NNE 3 mph , 6 km/h
Temperature: -2°F , -19°C
Dew Point: -6°F , -21°C
Humidity: 84%
Barometer: 30.11 inHg , 1019.6 hPa
Clouds: Clear
Visibility: 10 miles , 16 km
2019/02/16 15:15 KAIG 161515Z AUTO 02003KT 10SM CLR M19/M21 A3011 RMK AO2 T11911210
KSUE - Sturgeon Bay, Wisconsin, USA
Distance from station: SE 51mi, 82km
Updated: Sat, 16-Feb-2019 8:56am CST
Light snow, Overcast
Light snow, Overcast
 Wind from WNW
Wind: WNW 3 mph , 6 km/h
Temperature: 19°F , -7°C
Dew Point: 10°F , -12°C
Humidity: 68%
Barometer: 30.15 inHg , 1021 hPa
Summary: Light Snow
Clouds: Overcast
Visibility: 9 miles , 14 km
Cloud details: Overcast 1800 ft
2019/02/16 14:56 KSUE 161456Z AUTO 30003KT 9SM -SN OVC018 M07/M12 A3015 RMK AO2 SLP235 P0000 60000 T10671117 53002 FZRANO
 
KESC - Escanaba, Michigan, USA
Distance from station: ENE 56mi, 90km
Updated: Sat, 16-Feb-2019 8:56am CST
Light snow, Overcast
Light snow, Overcast
 Wind from NW
Wind: NW 6 mph , 9 km/h
Temperature: 18°F , -8°C
Wind Chill: 10°F , -12°C
Dew Point: 10°F , -12°C
Humidity: 73%
Barometer: 30.15 inHg , 1021 hPa
Summary: Light Snow
Clouds: Overcast
Visibility: 9 miles , 14 km
Cloud details: Overcast 2200 ft
2019/02/16 14:56 KESC 161456Z AUTO 31005KT 9SM -SN OVC022 M08/M12 A3015 RMK AO2 SLP237 P0000 60000 T10781117 50006 FZRANO
KCLI - Clintonville, Wisconsin, USA
Distance from station: SSW 62mi, 99km
Updated: Sat, 16-Feb-2019 9:35am CST
Clear
Clear
 Wind from NNE
Wind: NNE 3 mph , 6 km/h
Temperature: 9°F , -13°C
Dew Point: 5°F , -15°C
Humidity: 85%
Barometer: 30.17 inHg , 1021.7 hPa
Clouds: Clear
Visibility: 10 miles , 16 km
2019/02/16 15:35 KCLI 161535Z AUTO 03003KT 10SM CLR M13/M15 A3017 RMK AO2 T11321154
 
KGRB - Ashwaubenon, Wisconsin, USA
Distance from station: S 63mi, 102km
Updated: Sat, 16-Feb-2019 8:53am CST
Clear
Clear
 Wind from calm
Wind: Calm
Temperature: 9°F , -13°C
Dew Point: 7°F , -14°C
Humidity: 92%
Barometer: 30.17 inHg , 1021.7 hPa
Clouds: Clear
Visibility: 10 miles , 16 km
2019/02/16 14:53 KGRB 161453Z 00000KT 10SM CLR M13/M14 A3017 RMK AO2 SLP232 I3000 T11281144 53008
KEGV - Eagle River, Wisconsin, USA
Distance from station: NW 66mi, 107km
Updated: Sat, 16-Feb-2019 9:35am CST
Light snow, Overcast
Light snow, Overcast
 Wind from calm
Wind: Calm
Temperature: 9°F , -13°C
Dew Point: 5°F , -15°C
Humidity: 85%
Barometer: 30.09 inHg , 1019 hPa
Summary: Light Snow
Clouds: Overcast
Visibility: 2 1/2 miles , 4 km
Cloud details: Overcast 1000 ft
2019/02/16 15:35 KEGV 161535Z AUTO 00000KT 2 1/2SM -SN OVC010 M13/M15 A3009 RMK AO2 VIS 3/4V5 T11311151
 
KRHI - Rhinelander, Wisconsin, USA
Distance from station: WNW 68mi, 109km
Updated: Sat, 16-Feb-2019 8:53am CST
Mist, Overcast
Mist, Overcast
 Wind from calm
Wind: Calm
Temperature: 1°F , -17°C
Dew Point: -2°F , -19°C
Humidity: 85%
Barometer: 30.10 inHg , 1019.3 hPa
Summary: Mist
Clouds: Overcast
Visibility: 4 miles , 6 km
Cloud details: Overcast 1100 ft
2019/02/16 14:53 KRHI 161453Z AUTO 00000KT 4SM BR OVC011 M17/M19 A3010 RMK AO2 SLP234 T11721194 51016
KLNL - Land O Lakes, Wisconsin, USA
Distance from station: NW 74mi, 119km
Updated: Sat, 16-Feb-2019 9:15am CST
Light snow, Partly cloudy
Light snow, Partly cloudy
 Wind from calm
Wind: Calm
Temperature: 10°F , -12°C
Dew Point: 7°F , -14°C
Humidity: 85%
Barometer: 30.10 inHg , 1019.3 hPa
Summary: Light Snow
Clouds: Partly cloudy
Visibility: 7 miles , 11 km
Cloud details: Partly cloudy 800 ft
2019/02/16 15:15 KLNL 161515Z AUTO 00000KT 7SM -SN SCT008 M12/M14 A3010 RMK AO2 T11241145
 
KSAW - Gwinn/Sawyer, Michigan, USA
Distance from station: NNE 74mi, 120km
Updated: Sat, 16-Feb-2019 8:47am CST
Light snow, Overcast
Light snow, Overcast
 Wind from NNW
Wind: NNW 10 mph , 17 km/h
Temperature: 12°F , -11°C
Wind Chill: -1°F , -18°C
Dew Point: 7°F , -14°C
Humidity: 79%
Barometer: 30.08 inHg , 1018.6 hPa
Summary: Light Snow
Clouds: Overcast
Visibility: 7 miles , 11 km
Cloud details: Overcast 1200 ft
2019/02/16 14:47 KSAW 161447Z 33009KT 7SM -SN OVC012 M11/M14 A3008